sensor_id;sensor_type;location;lat;lon;timestamp;temperature;humidity
66330;DHT22;53134;51.114;6.934;2022-07-23T00:00:14;24.50;57.40
66330;DHT22;53134;51.114;6.934;2022-07-23T00:00:45;24.50;57.20
66330;DHT22;53134;51.114;6.934;2022-07-23T00:01:17;24.50;57.30
66330;DHT22;53134;51.114;6.934;2022-07-23T00:01:47;24.50;57.10
66330;DHT22;53134;51.114;6.934;2022-07-23T00:02:18;24.50;57.20
66330;DHT22;53134;51.114;6.934;2022-07-23T00:02:48;24.50;57.10
66330;DHT22;53134;51.114;6.934;2022-07-23T00:03:19;24.50;57.10
66330;DHT22;53134;51.114;6.934;2022-07-23T00:03:49;24.50;57.10
66330;DHT22;53134;51.114;6.934;2022-07-23T00:04:20;24.50;57.70
66330;DHT22;53134;51.114;6.934;2022-07-23T00:04:50;24.50;57.00
66330;DHT22;53134;51.114;6.934;2022-07-23T00:05:21;24.50;56.90
66330;DHT22;53134;51.114;6.934;2022-07-23T00:05:52;24.50;57.00
66330;DHT22;53134;51.114;6.934;2022-07-23T00:06:22;24.50;56.90
66330;DHT22;53134;51.114;6.934;2022-07-23T00:06:53;24.50;56.80
66330;DHT22;53134;51.114;6.934;2022-07-23T00:07:24;24.50;57.10
66330;DHT22;53134;51.114;6.934;2022-07-23T00:07:54;24.50;57.10
66330;DHT22;53134;51.114;6.934;2022-07-23T00:08:24;24.50;56.80
66330;DHT22;53134;51.114;6.934;2022-07-23T00:08:55;24.50;56.80
66330;DHT22;53134;51.114;6.934;2022-07-23T00:09:25;24.50;57.20
66330;DHT22;53134;51.114;6.934;2022-07-23T00:09:56;24.50;57.20
66330;DHT22;53134;51.114;6.934;2022-07-23T00:10:27;24.50;57.30
66330;DHT22;53134;51.114;6.934;2022-07-23T00:10:57;24.50;57.20
66330;DHT22;53134;51.114;6.934;2022-07-23T00:11:28;24.50;57.30
66330;DHT22;53134;51.114;6.934;2022-07-23T00:11:58;24.50;57.20
66330;DHT22;53134;51.114;6.934;2022-07-23T00:12:31;24.50;57.30
66330;DHT22;53134;51.114;6.934;2022-07-23T00:13:01;24.50;57.20
66330;DHT22;53134;51.114;6.934;2022-07-23T00:13:32;24.50;57.30
66330;DHT22;53134;51.114;6.934;2022-07-23T00:14:02;24.50;57.10
66330;DHT22;53134;51.114;6.934;2022-07-23T00:14:33;24.50;56.90
66330;DHT22;53134;51.114;6.934;2022-07-23T00:15:03;24.50;56.90
66330;DHT22;53134;51.114;6.934;2022-07-23T00:15:34;24.50;56.80
66330;DHT22;53134;51.114;6.934;2022-07-23T00:16:05;24.50;56.90
66330;DHT22;53134;51.114;6.934;2022-07-23T00:16:35;24.50;56.70
66330;DHT22;53134;51.114;6.934;2022-07-23T00:17:06;24.50;56.80
66330;DHT22;53134;51.114;6.934;2022-07-23T00:17:36;24.50;56.80
66330;DHT22;53134;51.114;6.934;2022-07-23T00:18:07;24.50;56.70
66330;DHT22;53134;51.114;6.934;2022-07-23T00:18:37;24.60;56.80
66330;DHT22;53134;51.114;6.934;2022-07-23T00:19:08;24.60;57.00
66330;DHT22;53134;51.114;6.934;2022-07-23T00:19:38;24.60;57.00
66330;DHT22;53134;51.114;6.934;2022-07-23T00:20:09;24.60;57.20
66330;DHT22;53134;51.114;6.934;2022-07-23T00:20:39;24.50;57.20
66330;DHT22;53134;51.114;6.934;2022-07-23T00:21:10;24.50;57.20
66330;DHT22;53134;51.114;6.934;2022-07-23T00:21:40;24.50;57.20
66330;DHT22;53134;51.114;6.934;2022-07-23T00:22:11;24.50;57.20
66330;DHT22;53134;51.114;6.934;2022-07-23T00:22:48;24.50;57.10
66330;DHT22;53134;51.114;6.934;2022-07-23T00:23:18;24.50;57.20
66330;DHT22;53134;51.114;6.934;2022-07-23T00:23:49;24.50;57.10
66330;DHT22;53134;51.114;6.934;2022-07-23T00:24:19;24.50;57.30
66330;DHT22;53134;51.114;6.934;2022-07-23T00:24:50;24.50;57.10
66330;DHT22;53134;51.114;6.934;2022-07-23T00:25:21;24.50;57.00
66330;DHT22;53134;51.114;6.934;2022-07-23T00:25:52;24.50;57.20
66330;DHT22;53134;51.114;6.934;2022-07-23T00:26:22;24.50;57.30
66330;DHT22;53134;51.114;6.934;2022-07-23T00:26:53;24.50;56.90
66330;DHT22;53134;51.114;6.934;2022-07-23T00:27:23;24.50;56.80
66330;DHT22;53134;51.114;6.934;2022-07-23T00:27:54;24.50;57.00
66330;DHT22;53134;51.114;6.934;2022-07-23T00:28:24;24.50;57.20
66330;DHT22;53134;51.114;6.934;2022-07-23T00:28:55;24.50;57.10
66330;DHT22;53134;51.114;6.934;2022-07-23T00:29:25;24.50;57.00
66330;DHT22;53134;51.114;6.934;2022-07-23T00:29:56;24.50;56.90
66330;DHT22;53134;51.114;6.934;2022-07-23T00:30:27;24.60;57.20
66330;DHT22;53134;51.114;6.934;2022-07-23T00:30:59;24.50;57.00
66330;DHT22;53134;51.114;6.934;2022-07-23T00:31:30;24.50;57.00
66330;DHT22;53134;51.114;6.934;2022-07-23T00:32:00;24.50;57.00
66330;DHT22;53134;51.114;6.934;2022-07-23T00:32:31;24.50;57.00
66330;DHT22;53134;51.114;6.934;2022-07-23T00:33:02;24.50;57.10
66330;DHT22;53134;51.114;6.934;2022-07-23T00:33:33;24.50;57.00
66330;DHT22;53134;51.114;6.934;2022-07-23T00:34:03;24.50;56.90
66330;DHT22;53134;51.114;6.934;2022-07-23T00:34:34;24.50;56.90
66330;DHT22;53134;51.114;6.934;2022-07-23T00:35:05;24.60;57.00
66330;DHT22;53134;51.114;6.934;2022-07-23T00:35:36;24.60;56.90
66330;DHT22;53134;51.114;6.934;2022-07-23T00:36:07;24.60;57.00
66330;DHT22;53134;51.114;6.934;2022-07-23T00:36:37;24.60;57.20
66330;DHT22;53134;51.114;6.934;2022-07-23T00:37:08;24.50;57.10
66330;DHT22;53134;51.114;6.934;2022-07-23T00:37:38;24.50;56.90
66330;DHT22;53134;51.114;6.934;2022-07-23T00:38:09;24.50;57.00
66330;DHT22;53134;51.114;6.934;2022-07-23T00:38:40;24.50;56.80
66330;DHT22;53134;51.114;6.934;2022-07-23T00:39:10;24.50;56.90
66330;DHT22;53134;51.114;6.934;2022-07-23T00:39:41;24.50;56.80
66330;DHT22;53134;51.114;6.934;2022-07-23T00:40:11;24.60;56.90
66330;DHT22;53134;51.114;6.934;2022-07-23T00:40:42;24.50;56.70
66330;DHT22;53134;51.114;6.934;2022-07-23T00:41:12;24.60;56.90
66330;DHT22;53134;51.114;6.934;2022-07-23T00:41:43;24.60;57.00
66330;DHT22;53134;51.114;6.934;2022-07-23T00:42:13;24.60;57.20
66330;DHT22;53134;51.114;6.934;2022-07-23T00:42:44;24.50;57.50
66330;DHT22;53134;51.114;6.934;2022-07-23T00:43:14;24.50;56.80
66330;DHT22;53134;51.114;6.934;2022-07-23T00:43:44;24.50;56.80
66330;DHT22;53134;51.114;6.934;2022-07-23T00:44:19;24.50;56.80
66330;DHT22;53134;51.114;6.934;2022-07-23T00:44:50;24.60;56.90
66330;DHT22;53134;51.114;6.934;2022-07-23T00:45:21;24.60;56.80
66330;DHT22;53134;51.114;6.934;2022-07-23T00:45:51;24.60;57.50
66330;DHT22;53134;51.114;6.934;2022-07-23T00:46:22;24.60;56.90
66330;DHT22;53134;51.114;6.934;2022-07-23T00:46:54;24.60;56.90
66330;DHT22;53134;51.114;6.934;2022-07-23T00:47:24;24.50;56.80
66330;DHT22;53134;51.114;6.934;2022-07-23T00:47:55;24.50;56.80
66330;DHT22;53134;51.114;6.934;2022-07-23T00:48:25;24.50;56.60
66330;DHT22;53134;51.114;6.934;2022-07-23T00:48:56;24.50;56.60
66330;DHT22;53134;51.114;6.934;2022-07-23T00:49:27;24.50;56.70
66330;DHT22;53134;51.114;6.934;2022-07-23T00:49:58;24.50;56.80
66330;DHT22;53134;51.114;6.934;2022-07-23T00:50:29;24.50;56.70
66330;DHT22;53134;51.114;6.934;2022-07-23T00:50:59;24.50;56.80
66330;DHT22;53134;51.114;6.934;2022-07-23T00:51:30;24.50;56.80
66330;DHT22;53134;51.114;6.934;2022-07-23T00:52:01;24.50;56.60
66330;DHT22;53134;51.114;6.934;2022-07-23T00:52:32;24.50;56.50
66330;DHT22;53134;51.114;6.934;2022-07-23T00:53:03;24.50;56.50
66330;DHT22;53134;51.114;6.934;2022-07-23T00:53:34;24.50;56.60
66330;DHT22;53134;51.114;6.934;2022-07-23T00:54:04;24.50;56.60
66330;DHT22;53134;51.114;6.934;2022-07-23T00:54:35;24.50;56.60
66330;DHT22;53134;51.114;6.934;2022-07-23T00:55:06;24.60;56.90
66330;DHT22;53134;51.114;6.934;2022-07-23T00:55:37;24.50;56.80
66330;DHT22;53134;51.114;6.934;2022-07-23T00:56:08;24.50;56.60
66330;DHT22;53134;51.114;6.934;2022-07-23T00:56:38;24.50;56.60
66330;DHT22;53134;51.114;6.934;2022-07-23T00:57:09;24.50;56.60
66330;DHT22;53134;51.114;6.934;2022-07-23T00:57:40;24.60;56.70
66330;DHT22;53134;51.114;6.934;2022-07-23T00:58:10;24.60;56.70
66330;DHT22;53134;51.114;6.934;2022-07-23T00:58:41;24.60;56.60
66330;DHT22;53134;51.114;6.934;2022-07-23T00:59:13;24.50;56.50
66330;DHT22;53134;51.114;6.934;2022-07-23T00:59:43;24.60;56.70
66330;DHT22;53134;51.114;6.934;2022-07-23T01:00:14;24.50;56.50
66330;DHT22;53134;51.114;6.934;2022-07-23T01:00:45;24.60;56.70
66330;DHT22;53134;51.114;6.934;2022-07-23T01:01:16;24.60;56.80
66330;DHT22;53134;51.114;6.934;2022-07-23T01:01:46;24.60;56.70
66330;DHT22;53134;51.114;6.934;2022-07-23T01:02:19;24.50;56.70
66330;DHT22;53134;51.114;6.934;2022-07-23T01:02:49;24.60;56.80
66330;DHT22;53134;51.114;6.934;2022-07-23T01:03:20;24.50;56.70
66330;DHT22;53134;51.114;6.934;2022-07-23T01:03:50;24.50;56.60
66330;DHT22;53134;51.114;6.934;2022-07-23T01:04:21;24.50;56.50
66330;DHT22;53134;51.114;6.934;2022-07-23T01:04:51;24.50;56.60
66330;DHT22;53134;51.114;6.934;2022-07-23T01:05:22;24.50;56.50
66330;DHT22;53134;51.114;6.934;2022-07-23T01:05:53;24.60;56.60
66330;DHT22;53134;51.114;6.934;2022-07-23T01:06:24;24.60;56.60
66330;DHT22;53134;51.114;6.934;2022-07-23T01:06:54;24.60;56.70
66330;DHT22;53134;51.114;6.934;2022-07-23T01:07:25;24.50;56.50
66330;DHT22;53134;51.114;6.934;2022-07-23T01:07:55;24.60;56.60
66330;DHT22;53134;51.114;6.934;2022-07-23T01:08:26;24.50;56.50
66330;DHT22;53134;51.114;6.934;2022-07-23T01:08:56;24.60;56.60
66330;DHT22;53134;51.114;6.934;2022-07-23T01:09:27;24.60;56.60
66330;DHT22;53134;51.114;6.934;2022-07-23T01:09:57;24.60;56.60
66330;DHT22;53134;51.114;6.934;2022-07-23T01:10:28;24.50;56.40
66330;DHT22;53134;51.114;6.934;2022-07-23T01:11:02;24.60;56.60
66330;DHT22;53134;51.114;6.934;2022-07-23T01:11:36;24.60;56.70
66330;DHT22;53134;51.114;6.934;2022-07-23T01:12:07;24.60;56.60
66330;DHT22;53134;51.114;6.934;2022-07-23T01:12:37;24.60;56.70
66330;DHT22;53134;51.114;6.934;2022-07-23T01:13:11;24.60;57.00
66330;DHT22;53134;51.114;6.934;2022-07-23T01:13:44;24.50;56.90
66330;DHT22;53134;51.114;6.934;2022-07-23T01:14:15;24.50;56.90
66330;DHT22;53134;51.114;6.934;2022-07-23T01:14:53;24.50;56.80
66330;DHT22;53134;51.114;6.934;2022-07-23T01:15:23;24.50;56.70
66330;DHT22;53134;51.114;6.934;2022-07-23T01:15:54;24.60;56.80
66330;DHT22;53134;51.114;6.934;2022-07-23T01:16:24;24.50;56.80
66330;DHT22;53134;51.114;6.934;2022-07-23T01:16:55;24.50;56.80
66330;DHT22;53134;51.114;6.934;2022-07-23T01:17:26;24.60;57.00
66330;DHT22;53134;51.114;6.934;2022-07-23T01:17:56;24.60;57.10
66330;DHT22;53134;51.114;6.934;2022-07-23T01:18:27;24.50;56.90
66330;DHT22;53134;51.114;6.934;2022-07-23T01:18:57;24.50;56.90
66330;DHT22;53134;51.114;6.934;2022-07-23T01:19:28;24.50;56.90
66330;DHT22;53134;51.114;6.934;2022-07-23T01:19:58;24.60;57.00
66330;DHT22;53134;51.114;6.934;2022-07-23T01:20:29;24.60;56.90
66330;DHT22;53134;51.114;6.934;2022-07-23T01:20:59;24.60;57.10
66330;DHT22;53134;51.114;6.934;2022-07-23T01:21:30;24.50;57.00
66330;DHT22;53134;51.114;6.934;2022-07-23T01:22:02;24.50;57.00
66330;DHT22;53134;51.114;6.934;2022-07-23T01:22:32;24.50;56.90
66330;DHT22;53134;51.114;6.934;2022-07-23T01:23:03;24.50;57.00
66330;DHT22;53134;51.114;6.934;2022-07-23T01:23:33;24.50;56.80
66330;DHT22;53134;51.114;6.934;2022-07-23T01:24:04;24.50;56.80
66330;DHT22;53134;51.114;6.934;2022-07-23T01:24:35;24.60;56.90
66330;DHT22;53134;51.114;6.934;2022-07-23T01:25:05;24.60;56.90
66330;DHT22;53134;51.114;6.934;2022-07-23T01:25:36;24.60;57.80
66330;DHT22;53134;51.114;6.934;2022-07-23T01:26:06;24.60;57.10
66330;DHT22;53134;51.114;6.934;2022-07-23T01:26:37;24.60;57.00
66330;DHT22;53134;51.114;6.934;2022-07-23T01:27:08;24.60;57.10
66330;DHT22;53134;51.114;6.934;2022-07-23T01:27:38;24.60;57.00
66330;DHT22;53134;51.114;6.934;2022-07-23T01:28:09;24.50;57.00
66330;DHT22;53134;51.114;6.934;2022-07-23T01:28:40;24.50;57.00
66330;DHT22;53134;51.114;6.934;2022-07-23T01:29:10;24.50;57.20
66330;DHT22;53134;51.114;6.934;2022-07-23T01:29:41;24.50;57.20
66330;DHT22;53134;51.114;6.934;2022-07-23T01:30:11;24.50;57.10
66330;DHT22;53134;51.114;6.934;2022-07-23T01:30:42;24.50;57.00
66330;DHT22;53134;51.114;6.934;2022-07-23T01:31:13;24.50;57.10
66330;DHT22;53134;51.114;6.934;2022-07-23T01:31:43;24.50;57.10
66330;DHT22;53134;51.114;6.934;2022-07-23T01:32:14;24.50;57.20
66330;DHT22;53134;51.114;6.934;2022-07-23T01:32:44;24.50;57.30
66330;DHT22;53134;51.114;6.934;2022-07-23T01:33:15;24.50;57.20
66330;DHT22;53134;51.114;6.934;2022-07-23T01:33:45;24.50;57.20
66330;DHT22;53134;51.114;6.934;2022-07-23T01:34:16;24.50;57.20
66330;DHT22;53134;51.114;6.934;2022-07-23T01:34:46;24.50;57.20
66330;DHT22;53134;51.114;6.934;2022-07-23T01:35:17;24.50;57.20
66330;DHT22;53134;51.114;6.934;2022-07-23T01:35:47;24.50;57.40
66330;DHT22;53134;51.114;6.934;2022-07-23T01:36:18;24.50;57.40
66330;DHT22;53134;51.114;6.934;2022-07-23T01:36:48;24.50;57.50
66330;DHT22;53134;51.114;6.934;2022-07-23T01:37:19;24.50;57.50
66330;DHT22;53134;51.114;6.934;2022-07-23T01:37:49;24.50;57.60
66330;DHT22;53134;51.114;6.934;2022-07-23T01:38:20;24.40;57.40
66330;DHT22;53134;51.114;6.934;2022-07-23T01:38:50;24.40;57.40
66330;DHT22;53134;51.114;6.934;2022-07-23T01:39:21;24.40;57.30
66330;DHT22;53134;51.114;6.934;2022-07-23T01:39:51;24.40;57.30
66330;DHT22;53134;51.114;6.934;2022-07-23T01:40:22;24.40;57.30
66330;DHT22;53134;51.114;6.934;2022-07-23T01:40:52;24.40;57.30
66330;DHT22;53134;51.114;6.934;2022-07-23T01:41:23;24.40;57.30
66330;DHT22;53134;51.114;6.934;2022-07-23T01:41:53;24.40;57.20
66330;DHT22;53134;51.114;6.934;2022-07-23T01:42:24;24.40;57.20
66330;DHT22;53134;51.114;6.934;2022-07-23T01:42:54;24.40;57.20
66330;DHT22;53134;51.114;6.934;2022-07-23T01:43:25;24.40;57.20
66330;DHT22;53134;51.114;6.934;2022-07-23T01:43:56;24.50;57.30
66330;DHT22;53134;51.114;6.934;2022-07-23T01:44:26;24.40;57.10
66330;DHT22;53134;51.114;6.934;2022-07-23T01:44:57;24.50;57.40
66330;DHT22;53134;51.114;6.934;2022-07-23T01:45:27;24.50;57.20
66330;DHT22;53134;51.114;6.934;2022-07-23T01:45:57;24.50;57.10
66330;DHT22;53134;51.114;6.934;2022-07-23T01:46:28;24.40;57.10
66330;DHT22;53134;51.114;6.934;2022-07-23T01:46:58;24.50;57.10
66330;DHT22;53134;51.114;6.934;2022-07-23T01:47:29;24.50;57.00
66330;DHT22;53134;51.114;6.934;2022-07-23T01:47:59;24.50;57.80
66330;DHT22;53134;51.114;6.934;2022-07-23T01:48:30;24.50;57.00
66330;DHT22;53134;51.114;6.934;2022-07-23T01:49:00;24.50;57.10
66330;DHT22;53134;51.114;6.934;2022-07-23T01:49:31;24.50;57.30
66330;DHT22;53134;51.114;6.934;2022-07-23T01:50:01;24.50;57.40
66330;DHT22;53134;51.114;6.934;2022-07-23T01:50:32;24.50;57.40
66330;DHT22;53134;51.114;6.934;2022-07-23T01:51:02;24.50;57.50
66330;DHT22;53134;51.114;6.934;2022-07-23T01:51:33;24.50;57.50
66330;DHT22;53134;51.114;6.934;2022-07-23T01:52:03;24.50;57.50
66330;DHT22;53134;51.114;6.934;2022-07-23T01:52:36;24.50;57.50
66330;DHT22;53134;51.114;6.934;2022-07-23T01:53:07;24.50;57.60
66330;DHT22;53134;51.114;6.934;2022-07-23T01:53:37;24.40;57.30
66330;DHT22;53134;51.114;6.934;2022-07-23T01:54:08;24.40;57.40
66330;DHT22;53134;51.114;6.934;2022-07-23T01:54:38;24.40;57.40
66330;DHT22;53134;51.114;6.934;2022-07-23T01:55:09;24.40;57.40
66330;DHT22;53134;51.114;6.934;2022-07-23T01:55:40;24.50;57.50
66330;DHT22;53134;51.114;6.934;2022-07-23T01:56:11;24.50;57.30
66330;DHT22;53134;51.114;6.934;2022-07-23T01:56:41;24.50;57.30
66330;DHT22;53134;51.114;6.934;2022-07-23T01:57:12;24.50;57.20
66330;DHT22;53134;51.114;6.934;2022-07-23T01:57:42;24.50;57.20
66330;DHT22;53134;51.114;6.934;2022-07-23T01:58:13;24.50;57.10
66330;DHT22;53134;51.114;6.934;2022-07-23T01:58:43;24.50;57.10
66330;DHT22;53134;51.114;6.934;2022-07-23T01:59:14;24.50;57.20
66330;DHT22;53134;51.114;6.934;2022-07-23T01:59:44;24.50;57.40
66330;DHT22;53134;51.114;6.934;2022-07-23T02:00:15;24.50;58.30
66330;DHT22;53134;51.114;6.934;2022-07-23T02:00:45;24.50;57.50
66330;DHT22;53134;51.114;6.934;2022-07-23T02:01:16;24.50;57.60
66330;DHT22;53134;51.114;6.934;2022-07-23T02:01:46;24.50;57.20
66330;DHT22;53134;51.114;6.934;2022-07-23T02:02:17;24.50;57.30
66330;DHT22;53134;51.114;6.934;2022-07-23T02:02:47;24.50;57.40
66330;DHT22;53134;51.114;6.934;2022-07-23T02:03:18;24.50;57.50
66330;DHT22;53134;51.114;6.934;2022-07-23T02:03:48;24.50;57.50
66330;DHT22;53134;51.114;6.934;2022-07-23T02:04:22;24.50;57.30
66330;DHT22;53134;51.114;6.934;2022-07-23T02:04:53;24.50;57.40
66330;DHT22;53134;51.114;6.934;2022-07-23T02:05:24;24.50;57.50
66330;DHT22;53134;51.114;6.934;2022-07-23T02:05:55;24.50;57.40
66330;DHT22;53134;51.114;6.934;2022-07-23T02:06:25;24.50;57.30
66330;DHT22;53134;51.114;6.934;2022-07-23T02:06:56;24.50;57.40
66330;DHT22;53134;51.114;6.934;2022-07-23T02:07:26;24.50;57.30
66330;DHT22;53134;51.114;6.934;2022-07-23T02:07:57;24.50;57.40
66330;DHT22;53134;51.114;6.934;2022-07-23T02:08:27;24.50;57.40
66330;DHT22;53134;51.114;6.934;2022-07-23T02:08:58;24.50;57.50
66330;DHT22;53134;51.114;6.934;2022-07-23T02:09:28;24.50;57.40
66330;DHT22;53134;51.114;6.934;2022-07-23T02:09:59;24.50;57.50
66330;DHT22;53134;51.114;6.934;2022-07-23T02:10:29;24.50;57.50
66330;DHT22;53134;51.114;6.934;2022-07-23T02:11:00;24.40;57.30
66330;DHT22;53134;51.114;6.934;2022-07-23T02:11:30;24.40;57.40
66330;DHT22;53134;51.114;6.934;2022-07-23T02:12:01;24.50;57.50
66330;DHT22;53134;51.114;6.934;2022-07-23T02:12:31;24.50;57.50
66330;DHT22;53134;51.114;6.934;2022-07-23T02:13:02;24.40;57.40
66330;DHT22;53134;51.114;6.934;2022-07-23T02:13:32;24.40;57.40
66330;DHT22;53134;51.114;6.934;2022-07-23T02:14:03;24.40;57.50
66330;DHT22;53134;51.114;6.934;2022-07-23T02:14:33;24.40;57.30
66330;DHT22;53134;51.114;6.934;2022-07-23T02:15:04;24.40;57.40
66330;DHT22;53134;51.114;6.934;2022-07-23T02:15:35;24.40;57.40
66330;DHT22;53134;51.114;6.934;2022-07-23T02:16:05;24.40;57.40
66330;DHT22;53134;51.114;6.934;2022-07-23T02:16:36;24.40;57.30
66330;DHT22;53134;51.114;6.934;2022-07-23T02:17:06;24.40;57.30
66330;DHT22;53134;51.114;6.934;2022-07-23T02:17:37;24.40;57.30
66330;DHT22;53134;51.114;6.934;2022-07-23T02:18:08;24.40;57.20
66330;DHT22;53134;51.114;6.934;2022-07-23T02:18:38;24.40;57.30
66330;DHT22;53134;51.114;6.934;2022-07-23T02:19:09;24.40;57.40
66330;DHT22;53134;51.114;6.934;2022-07-23T02:19:39;24.40;57.40
66330;DHT22;53134;51.114;6.934;2022-07-23T02:20:10;24.40;57.30
66330;DHT22;53134;51.114;6.934;2022-07-23T02:20:41;24.40;57.30
66330;DHT22;53134;51.114;6.934;2022-07-23T02:21:12;24.40;57.30
66330;DHT22;53134;51.114;6.934;2022-07-23T02:21:43;24.40;57.30
66330;DHT22;53134;51.114;6.934;2022-07-23T02:22:13;24.40;57.30
66330;DHT22;53134;51.114;6.934;2022-07-23T02:22:44;24.40;57.40
66330;DHT22;53134;51.114;6.934;2022-07-23T02:23:14;24.40;57.40
66330;DHT22;53134;51.114;6.934;2022-07-23T02:23:45;24.40;57.40
66330;DHT22;53134;51.114;6.934;2022-07-23T02:24:15;24.40;57.40
66330;DHT22;53134;51.114;6.934;2022-07-23T02:24:46;24.40;57.40
66330;DHT22;53134;51.114;6.934;2022-07-23T02:25:16;24.40;57.40
66330;DHT22;53134;51.114;6.934;2022-07-23T02:25:47;24.40;57.30
66330;DHT22;53134;51.114;6.934;2022-07-23T02:26:18;24.40;57.40
66330;DHT22;53134;51.114;6.934;2022-07-23T02:26:49;24.40;57.40
66330;DHT22;53134;51.114;6.934;2022-07-23T02:27:19;24.40;57.30
66330;DHT22;53134;51.114;6.934;2022-07-23T02:27:50;24.40;57.30
66330;DHT22;53134;51.114;6.934;2022-07-23T02:28:20;24.40;57.30
66330;DHT22;53134;51.114;6.934;2022-07-23T02:28:51;24.40;57.30
66330;DHT22;53134;51.114;6.934;2022-07-23T02:29:23;24.40;57.30
66330;DHT22;53134;51.114;6.934;2022-07-23T02:29:53;24.40;57.30
66330;DHT22;53134;51.114;6.934;2022-07-23T02:30:24;24.40;57.30
66330;DHT22;53134;51.114;6.934;2022-07-23T02:30:54;24.40;57.20
66330;DHT22;53134;51.114;6.934;2022-07-23T02:31:24;24.40;57.10
66330;DHT22;53134;51.114;6.934;2022-07-23T02:31:55;24.40;57.10
66330;DHT22;53134;51.114;6.934;2022-07-23T02:32:25;24.40;57.20
66330;DHT22;53134;51.114;6.934;2022-07-23T02:32:56;24.40;57.20
66330;DHT22;53134;51.114;6.934;2022-07-23T02:33:26;24.40;57.10
66330;DHT22;53134;51.114;6.934;2022-07-23T02:33:57;24.40;57.10
66330;DHT22;53134;51.114;6.934;2022-07-23T02:34:27;24.40;57.10
66330;DHT22;53134;51.114;6.934;2022-07-23T02:34:58;24.40;57.20
66330;DHT22;53134;51.114;6.934;2022-07-23T02:35:28;24.40;57.20
66330;DHT22;53134;51.114;6.934;2022-07-23T02:35:59;24.40;57.20
66330;DHT22;53134;51.114;6.934;2022-07-23T02:36:30;24.40;57.30
66330;DHT22;53134;51.114;6.934;2022-07-23T02:37:00;24.40;57.10
66330;DHT22;53134;51.114;6.934;2022-07-23T02:37:31;24.40;57.20
66330;DHT22;53134;51.114;6.934;2022-07-23T02:38:02;24.40;57.10
66330;DHT22;53134;51.114;6.934;2022-07-23T02:38:32;24.40;57.10
66330;DHT22;53134;51.114;6.934;2022-07-23T02:39:03;24.40;57.10
66330;DHT22;53134;51.114;6.934;2022-07-23T02:39:33;24.40;57.10
66330;DHT22;53134;51.114;6.934;2022-07-23T02:40:04;24.40;57.00
66330;DHT22;53134;51.114;6.934;2022-07-23T02:40:34;24.40;57.00
66330;DHT22;53134;51.114;6.934;2022-07-23T02:41:05;24.40;57.00
66330;DHT22;53134;51.114;6.934;2022-07-23T02:41:35;24.40;57.10
66330;DHT22;53134;51.114;6.934;2022-07-23T02:42:06;24.40;57.10
66330;DHT22;53134;51.114;6.934;2022-07-23T02:42:36;24.40;57.10
66330;DHT22;53134;51.114;6.934;2022-07-23T02:43:07;24.40;57.10
66330;DHT22;53134;51.114;6.934;2022-07-23T02:43:37;24.40;57.10
66330;DHT22;53134;51.114;6.934;2022-07-23T02:44:08;24.40;57.10
66330;DHT22;53134;51.114;6.934;2022-07-23T02:44:38;24.40;57.10
66330;DHT22;53134;51.114;6.934;2022-07-23T02:45:09;24.40;57.10
66330;DHT22;53134;51.114;6.934;2022-07-23T02:45:39;24.40;57.10
66330;DHT22;53134;51.114;6.934;2022-07-23T02:46:10;24.40;57.10
66330;DHT22;53134;51.114;6.934;2022-07-23T02:46:40;24.40;57.10
66330;DHT22;53134;51.114;6.934;2022-07-23T02:47:10;24.40;57.10
66330;DHT22;53134;51.114;6.934;2022-07-23T02:47:41;24.40;57.10
66330;DHT22;53134;51.114;6.934;2022-07-23T02:48:11;24.40;57.10
66330;DHT22;53134;51.114;6.934;2022-07-23T02:48:44;24.40;57.10
66330;DHT22;53134;51.114;6.934;2022-07-23T02:49:15;24.40;57.10
66330;DHT22;53134;51.114;6.934;2022-07-23T02:49:45;24.30;56.90
66330;DHT22;53134;51.114;6.934;2022-07-23T02:50:16;24.40;57.10
66330;DHT22;53134;51.114;6.934;2022-07-23T02:50:46;24.40;57.10
66330;DHT22;53134;51.114;6.934;2022-07-23T02:51:17;24.30;57.00
66330;DHT22;53134;51.114;6.934;2022-07-23T02:51:47;24.30;56.90
66330;DHT22;53134;51.114;6.934;2022-07-23T02:52:18;24.40;57.00
66330;DHT22;53134;51.114;6.934;2022-07-23T02:52:48;24.40;57.00
66330;DHT22;53134;51.114;6.934;2022-07-23T02:53:19;24.40;57.10
66330;DHT22;53134;51.114;6.934;2022-07-23T02:53:49;24.40;57.10
66330;DHT22;53134;51.114;6.934;2022-07-23T02:54:20;24.40;57.10
66330;DHT22;53134;51.114;6.934;2022-07-23T02:54:50;24.40;56.90
66330;DHT22;53134;51.114;6.934;2022-07-23T02:55:21;24.40;57.10
66330;DHT22;53134;51.114;6.934;2022-07-23T02:55:51;24.40;56.90
66330;DHT22;53134;51.114;6.934;2022-07-23T02:56:22;24.40;56.90
66330;DHT22;53134;51.114;6.934;2022-07-23T02:56:52;24.40;57.70
66330;DHT22;53134;51.114;6.934;2022-07-23T02:57:23;24.40;56.90
66330;DHT22;53134;51.114;6.934;2022-07-23T02:57:53;24.40;56.90
66330;DHT22;53134;51.114;6.934;2022-07-23T02:58:24;24.40;57.00
66330;DHT22;53134;51.114;6.934;2022-07-23T02:58:56;24.40;56.90
66330;DHT22;53134;51.114;6.934;2022-07-23T02:59:27;24.40;56.80
66330;DHT22;53134;51.114;6.934;2022-07-23T02:59:57;24.40;56.90
66330;DHT22;53134;51.114;6.934;2022-07-23T03:00:28;24.40;57.00
66330;DHT22;53134;51.114;6.934;2022-07-23T03:00:58;24.40;57.10
66330;DHT22;53134;51.114;6.934;2022-07-23T03:01:29;24.40;57.00
66330;DHT22;53134;51.114;6.934;2022-07-23T03:01:59;24.40;56.90
66330;DHT22;53134;51.114;6.934;2022-07-23T03:02:30;24.40;56.90
66330;DHT22;53134;51.114;6.934;2022-07-23T03:03:00;24.40;57.00
66330;DHT22;53134;51.114;6.934;2022-07-23T03:03:31;24.40;57.10
66330;DHT22;53134;51.114;6.934;2022-07-23T03:04:01;24.40;57.00
66330;DHT22;53134;51.114;6.934;2022-07-23T03:04:32;24.40;56.90
66330;DHT22;53134;51.114;6.934;2022-07-23T03:05:02;24.40;56.90
66330;DHT22;53134;51.114;6.934;2022-07-23T03:05:33;24.40;56.90
66330;DHT22;53134;51.114;6.934;2022-07-23T03:06:04;24.40;57.00
66330;DHT22;53134;51.114;6.934;2022-07-23T03:06:35;24.40;57.00
66330;DHT22;53134;51.114;6.934;2022-07-23T03:07:05;24.30;56.80
66330;DHT22;53134;51.114;6.934;2022-07-23T03:07:36;24.40;56.90
66330;DHT22;53134;51.114;6.934;2022-07-23T03:08:06;24.40;56.90
66330;DHT22;53134;51.114;6.934;2022-07-23T03:08:37;24.40;57.00
66330;DHT22;53134;51.114;6.934;2022-07-23T03:09:07;24.30;56.80
66330;DHT22;53134;51.114;6.934;2022-07-23T03:09:38;24.30;56.70
66330;DHT22;53134;51.114;6.934;2022-07-23T03:10:08;24.40;56.80
66330;DHT22;53134;51.114;6.934;2022-07-23T03:10:39;24.40;56.80
66330;DHT22;53134;51.114;6.934;2022-07-23T03:11:09;24.40;56.80
66330;DHT22;53134;51.114;6.934;2022-07-23T03:11:41;24.40;56.80
66330;DHT22;53134;51.114;6.934;2022-07-23T03:12:11;24.40;56.80
66330;DHT22;53134;51.114;6.934;2022-07-23T03:12:42;24.40;56.90
66330;DHT22;53134;51.114;6.934;2022-07-23T03:13:12;24.40;56.80
66330;DHT22;53134;51.114;6.934;2022-07-23T03:13:43;24.40;56.80